createdAt,value
2022-11-23T00:00:23.903Z,78.61
2022-11-23T00:02:56.763Z,78.10
2022-11-23T00:05:23.821Z,79.84
2022-11-23T00:07:50.694Z,79.40
2022-11-23T00:10:17.398Z,77.31
2022-11-23T00:12:44.202Z,79.44
2022-11-23T00:15:12.761Z,78.94
2022-11-23T00:17:39.582Z,79.67
2022-11-23T00:20:07.579Z,78.38
2022-11-23T00:22:34.964Z,80.55
2022-11-23T00:25:01.534Z,81.39
2022-11-23T00:27:28.064Z,79.89
2022-11-23T00:29:54.554Z,79.61
2022-11-23T00:32:21.224Z,80.97
2022-11-23T00:34:47.703Z,81.34
2022-11-23T00:37:14.131Z,82.62
2022-11-23T00:39:40.614Z,81.83
2022-11-23T00:42:07.051Z,80.46
2022-11-23T00:44:33.510Z,82.13
2022-11-23T00:46:59.930Z,82.00
2022-11-23T00:49:26.400Z,81.74
2022-11-23T00:51:52.836Z,81.38
2022-11-23T00:54:19.325Z,82.40
2022-11-23T00:56:45.755Z,81.26
2022-11-23T00:59:12.196Z,79.51
2022-11-23T01:01:38.666Z,81.23
2022-11-23T01:04:07.127Z,79.54
2022-11-23T01:06:36.606Z,81.47
2022-11-23T01:09:17.871Z,82.49
2022-11-23T01:11:45.157Z,81.62
2022-11-23T01:14:12.007Z,80.91
2022-11-23T01:16:40.028Z,80.50
2022-11-23T01:19:08.673Z,80.84
2022-11-23T01:21:35.842Z,81.65
2022-11-23T01:24:07.266Z,81.35
2022-11-23T01:26:33.792Z,80.63
2022-11-23T01:29:00.248Z,81.65
2022-11-23T01:31:27.210Z,82.04
2022-11-23T01:34:01.352Z,81.35
2022-11-23T01:36:32.763Z,80.52
2022-11-23T01:39:00.460Z,80.37
2022-11-23T01:41:32.728Z,81.15
2022-11-23T01:43:59.489Z,80.62
2022-11-23T01:46:26.029Z,80.05
2022-11-23T01:49:06.976Z,79.47
2022-11-23T01:51:39.898Z,80.44
2022-11-23T01:54:22.952Z,81.03
2022-11-23T01:56:55.984Z,81.86
2022-11-23T01:59:23.510Z,81.06
2022-11-23T02:01:49.955Z,80.84
2022-11-23T02:04:21.284Z,81.26
2022-11-23T02:06:48.077Z,80.97
2022-11-23T02:09:16.449Z,81.59
2022-11-23T02:11:43.319Z,81.27
2022-11-23T02:14:09.928Z,80.78
2022-11-23T02:16:37.652Z,81.98
2022-11-23T02:19:06.975Z,80.89
2022-11-23T02:21:33.473Z,80.35
2022-11-23T02:24:12.794Z,80.39
2022-11-23T02:26:39.415Z,80.78
2022-11-23T02:29:09.047Z,81.14
2022-11-23T02:31:36.147Z,79.00
2022-11-23T02:34:02.867Z,78.73
2022-11-23T02:36:35.809Z,79.91
2022-11-23T02:39:16.595Z,80.42
2022-11-23T02:41:46.165Z,80.63
2022-11-23T02:44:17.872Z,82.26
2022-11-23T02:46:44.405Z,78.78
2022-11-23T02:49:10.882Z,79.96
2022-11-23T02:51:37.417Z,79.62
2022-11-23T02:54:04.033Z,79.88
2022-11-23T02:56:30.473Z,80.13
2022-11-23T02:58:56.891Z,80.36
2022-11-23T03:01:23.361Z,80.39
2022-11-23T03:03:49.816Z,80.29
2022-11-23T03:06:16.275Z,79.54
2022-11-23T03:08:42.698Z,79.79
2022-11-23T03:11:09.161Z,79.76
2022-11-23T03:13:35.655Z,79.43
2022-11-23T03:16:02.180Z,80.11
2022-11-23T03:18:28.764Z,79.79
2022-11-23T03:20:55.245Z,80.67
2022-11-23T03:23:21.675Z,79.94
2022-11-23T03:25:55.867Z,79.92
2022-11-23T03:28:22.363Z,80.07
2022-11-23T03:30:48.871Z,80.31
2022-11-23T03:33:15.315Z,80.61
2022-11-23T03:35:41.790Z,80.49
2022-11-23T03:38:08.275Z,80.10
2022-11-23T03:40:34.874Z,80.61
2022-11-23T03:43:01.560Z,81.01
2022-11-23T03:45:28.029Z,81.35
2022-11-23T03:47:54.455Z,81.40
2022-11-23T03:50:20.996Z,81.24
2022-11-23T03:52:50.664Z,81.40
2022-11-23T03:55:17.311Z,81.25
2022-11-23T03:57:43.796Z,80.89
2022-11-23T04:00:10.728Z,78.99
2022-11-23T04:02:37.169Z,79.33
2022-11-23T04:05:03.718Z,79.89
2022-11-23T04:07:30.213Z,79.22
2022-11-23T04:09:56.744Z,80.54
2022-11-23T04:12:23.196Z,80.79
2022-11-23T04:14:49.773Z,78.42
2022-11-23T04:17:16.232Z,79.03
2022-11-23T04:19:42.712Z,78.48
2022-11-23T04:22:09.302Z,81.04
2022-11-23T04:24:35.761Z,78.62
2022-11-23T04:27:02.237Z,80.37
2022-11-23T04:29:28.698Z,79.67
2022-11-23T04:31:55.148Z,81.32
2022-11-23T04:34:21.594Z,80.24
2022-11-23T04:36:48.078Z,80.97
2022-11-23T04:39:14.698Z,80.53
2022-11-23T04:41:41.201Z,79.30
2022-11-23T04:44:07.637Z,81.23
2022-11-23T04:46:35.655Z,79.41
2022-11-23T04:49:02.067Z,80.54
2022-11-23T04:51:28.512Z,80.95
2022-11-23T04:53:54.939Z,80.60
2022-11-23T04:56:21.399Z,78.54
2022-11-23T04:58:47.857Z,79.99
2022-11-23T05:01:14.428Z,80.31
2022-11-23T05:03:40.884Z,79.64
2022-11-23T05:06:07.648Z,80.66
2022-11-23T05:08:34.087Z,79.65
2022-11-23T05:11:00.571Z,80.81
2022-11-23T05:13:26.999Z,78.88
2022-11-23T05:15:53.462Z,79.38
2022-11-23T05:18:20.114Z,78.50
2022-11-23T05:20:46.935Z,79.95
2022-11-23T05:23:13.509Z,78.30
2022-11-23T05:25:40.177Z,79.22
2022-11-23T05:28:23.371Z,78.55
2022-11-23T05:30:53.887Z,79.41
2022-11-23T05:33:20.356Z,80.37
2022-11-23T05:35:46.812Z,80.94
2022-11-23T05:38:13.268Z,82.10
2022-11-23T05:40:39.711Z,80.31
2022-11-23T05:43:06.190Z,79.61
2022-11-23T05:45:32.627Z,81.46
2022-11-23T05:47:59.535Z,80.28
2022-11-23T05:50:28.016Z,80.60
2022-11-23T05:52:56.886Z,80.09
2022-11-23T05:55:23.499Z,79.83
2022-11-23T05:57:49.961Z,78.63
2022-11-23T06:00:17.048Z,79.31
2022-11-23T06:02:43.580Z,79.72
2022-11-23T06:05:10.268Z,79.33
2022-11-23T06:07:37.036Z,78.43
2022-11-23T06:10:05.261Z,79.22
2022-11-23T06:12:32.297Z,80.03
2022-11-23T06:14:58.719Z,78.89
2022-11-23T06:17:25.220Z,80.49
2022-11-23T06:19:51.648Z,80.95
2022-11-23T06:22:18.113Z,80.50
2022-11-23T06:24:44.586Z,80.07
2022-11-23T06:27:15.263Z,80.99
2022-11-23T06:29:44.267Z,80.46
2022-11-23T06:32:10.862Z,79.18
2022-11-23T06:34:37.380Z,79.59
2022-11-23T06:37:03.877Z,80.43
2022-11-23T06:39:30.439Z,78.76
2022-11-23T06:42:10.796Z,81.24
2022-11-23T06:44:43.580Z,79.77
2022-11-23T06:47:14.005Z,80.42
2022-11-23T06:49:43.043Z,79.14
2022-11-23T06:52:09.507Z,78.74
2022-11-23T06:54:35.985Z,81.78
2022-11-23T06:57:02.416Z,81.46
2022-11-23T06:59:28.886Z,81.65
2022-11-23T07:01:55.332Z,80.49
2022-11-23T07:04:21.835Z,80.48
2022-11-23T07:06:48.257Z,80.58
2022-11-23T07:09:14.784Z,81.92
2022-11-23T07:11:41.316Z,81.83
2022-11-23T07:14:07.773Z,80.77
2022-11-23T07:16:34.318Z,80.17
2022-11-23T07:19:00.897Z,80.82
2022-11-23T07:21:27.361Z,82.08
2022-11-23T07:23:53.825Z,81.20
2022-11-23T07:26:20.445Z,82.10
2022-11-23T07:28:46.957Z,81.13
2022-11-23T07:31:16.065Z,79.63
2022-11-23T07:33:46.633Z,80.60
2022-11-23T07:36:13.502Z,81.61
2022-11-23T07:38:40.297Z,82.37
2022-11-23T07:41:06.931Z,80.37
2022-11-23T07:43:33.415Z,79.57
2022-11-23T07:45:59.855Z,78.70
2022-11-23T07:48:28.098Z,79.99
2022-11-23T07:50:56.146Z,80.47
2022-11-23T07:53:23.774Z,80.60
2022-11-23T07:55:50.233Z,79.66
2022-11-23T07:58:16.696Z,80.25
2022-11-23T08:00:43.231Z,80.97
2022-11-23T08:03:29.691Z,79.61
2022-11-23T08:05:56.583Z,79.63
2022-11-23T08:08:23.201Z,79.47
2022-11-23T08:10:53.323Z,79.47
2022-11-23T08:13:21.158Z,82.38
2022-11-23T08:15:53.247Z,80.40
2022-11-23T08:18:20.815Z,80.11
2022-11-23T08:20:47.329Z,80.33
2022-11-23T08:23:13.768Z,80.04
2022-11-23T08:25:40.374Z,80.03
2022-11-23T08:28:06.903Z,79.78
2022-11-23T08:30:34.233Z,79.47
2022-11-23T08:33:07.699Z,79.16
2022-11-23T08:35:38.556Z,80.56
2022-11-23T08:38:05.999Z,79.62
2022-11-23T08:40:33.201Z,79.71
2022-11-23T08:42:59.637Z,79.64
2022-11-23T08:45:26.306Z,78.48
2022-11-23T08:47:53.144Z,79.47
2022-11-23T08:50:20.142Z,79.11
2022-11-23T08:52:46.694Z,80.06
2022-11-23T08:55:13.172Z,79.63
2022-11-23T08:57:39.623Z,80.07
2022-11-23T09:00:06.866Z,79.81
2022-11-23T09:02:33.303Z,79.39
2022-11-23T09:05:00.709Z,78.46
2022-11-23T09:07:27.190Z,78.34
2022-11-23T09:09:53.676Z,79.07
2022-11-23T09:12:20.095Z,79.50
2022-11-23T09:14:46.559Z,78.07
2022-11-23T09:17:13.078Z,77.69
2022-11-23T09:19:39.554Z,79.25
2022-11-23T09:22:06.085Z,79.43
2022-11-23T09:24:32.808Z,79.96
2022-11-23T09:26:59.625Z,80.94
2022-11-23T09:29:26.656Z,79.68
2022-11-23T09:31:53.195Z,79.76
2022-11-23T09:34:19.672Z,78.81
2022-11-23T09:36:46.530Z,78.76
2022-11-23T09:39:13.040Z,78.62
2022-11-23T09:41:47.072Z,79.54
2022-11-23T09:44:38.513Z,77.86
2022-11-23T09:47:35.936Z,78.33
2022-11-23T09:50:09.282Z,77.63
2022-11-23T09:52:37.578Z,78.72
2022-11-23T09:55:34.565Z,80.11
2022-11-23T09:58:03.911Z,81.11
2022-11-23T10:00:37.923Z,79.67
2022-11-23T10:03:04.610Z,79.31
2022-11-23T10:05:35.799Z,78.35
2022-11-23T10:08:18.012Z,78.61
2022-11-23T10:10:53.434Z,78.90
2022-11-23T10:13:35.341Z,78.78
2022-11-23T10:16:10.228Z,79.28
2022-11-23T10:18:57.619Z,79.89
2022-11-23T10:21:33.978Z,79.45
2022-11-23T10:24:34.400Z,78.93
2022-11-23T10:27:01.584Z,79.08
2022-11-23T10:29:38.044Z,78.92
2022-11-23T10:32:33.710Z,79.40
2022-11-23T10:35:13.398Z,78.53
2022-11-23T10:37:40.646Z,77.70
2022-11-23T10:40:17.393Z,77.32
2022-11-23T10:42:51.539Z,77.80
2022-11-23T10:45:23.549Z,78.77
2022-11-23T10:48:01.629Z,77.60
2022-11-23T10:50:30.531Z,77.28
2022-11-23T10:53:22.595Z,77.66
2022-11-23T10:56:01.735Z,77.47
2022-11-23T10:58:44.691Z,78.23
2022-11-23T11:01:15.321Z,77.73
2022-11-23T11:03:42.168Z,77.40
2022-11-23T11:06:10.131Z,78.80
2022-11-23T11:08:50.038Z,76.64
2022-11-23T11:11:33.327Z,76.93
2022-11-23T11:14:05.800Z,78.15
2022-11-23T11:16:37.055Z,77.47
2022-11-23T11:19:26.575Z,77.33
2022-11-23T11:21:53.166Z,76.45
2022-11-23T11:24:43.895Z,76.79
2022-11-23T11:27:16.223Z,76.80
2022-11-23T11:29:45.717Z,76.46
2022-11-23T11:32:23.716Z,76.75
2022-11-23T11:35:10.703Z,77.66
2022-11-23T11:37:40.290Z,76.63
2022-11-23T11:40:35.387Z,75.78
2022-11-23T11:43:25.344Z,75.75
2022-11-23T11:46:27.436Z,75.20
2022-11-23T11:48:49.538Z,75.81
2022-11-23T11:51:34.589Z,76.70
2022-11-23T11:54:19.441Z,77.55
2022-11-23T11:56:54.409Z,78.05
2022-11-23T11:59:42.924Z,76.57
2022-11-23T12:02:27.223Z,75.51
2022-11-23T12:05:14.384Z,76.69
2022-11-23T12:07:53.037Z,75.46
2022-11-23T12:10:51.868Z,76.12
2022-11-23T12:13:21.745Z,76.16
2022-11-23T12:16:14.606Z,75.62
2022-11-23T12:18:50.422Z,75.45
2022-11-23T12:21:25.823Z,75.40
2022-11-23T12:24:05.246Z,77.07
2022-11-23T12:27:24.678Z,76.11
2022-11-23T12:30:25.637Z,75.46
2022-11-23T12:33:10.450Z,74.24
2022-11-23T12:35:56.169Z,75.13
2022-11-23T12:38:34.692Z,76.83
2022-11-23T12:41:04.180Z,76.90
2022-11-23T12:44:03.063Z,77.33
2022-11-23T12:46:50.403Z,76.73
2022-11-23T12:49:52.025Z,76.80
2022-11-23T12:52:18.505Z,76.36
2022-11-23T12:55:19.651Z,77.02
2022-11-23T12:57:52.564Z,77.19
2022-11-23T13:00:23.423Z,78.36
2022-11-23T13:02:55.955Z,76.67
2022-11-23T13:05:42.157Z,78.28
2022-11-23T13:08:24.684Z,77.78
2022-11-23T13:11:21.582Z,76.34
2022-11-23T13:14:10.261Z,74.26
2022-11-23T13:17:27.481Z,75.67
2022-11-23T13:20:06.247Z,75.56
2022-11-23T13:22:33.173Z,78.00
2022-11-23T13:25:18.314Z,76.89
2022-11-23T13:27:56.215Z,77.26
2022-11-23T13:30:40.167Z,75.59
2022-11-23T13:33:18.351Z,75.67
2022-11-23T13:35:51.635Z,75.53
2022-11-23T13:38:19.043Z,75.76
2022-11-23T13:40:46.209Z,75.99
2022-11-23T13:43:17.194Z,74.98
2022-11-23T13:45:43.990Z,74.98
2022-11-23T13:48:19.317Z,76.31
2022-11-23T13:50:50.887Z,75.57
2022-11-23T13:53:34.871Z,75.31
2022-11-23T13:56:21.262Z,77.17
2022-11-23T13:59:22.569Z,77.40
2022-11-23T14:02:07.572Z,76.00
2022-11-23T14:04:41.806Z,76.95
2022-11-23T14:07:29.935Z,75.61
2022-11-23T14:10:08.459Z,76.46
2022-11-23T14:12:47.370Z,78.14
2022-11-23T14:15:21.865Z,76.26
2022-11-23T14:18:19.484Z,75.79
2022-11-23T14:21:10.406Z,75.66
2022-11-23T14:23:42.680Z,76.08
2022-11-23T14:26:21.476Z,75.11
2022-11-23T14:29:12.903Z,75.19
2022-11-23T14:32:02.559Z,76.13
2022-11-23T14:34:38.162Z,77.01
2022-11-23T14:37:23.010Z,77.05
2022-11-23T14:40:19.400Z,76.73
2022-11-23T14:42:52.217Z,77.27
2022-11-23T14:45:20.463Z,76.54
2022-11-23T14:47:47.031Z,76.46
2022-11-23T14:50:25.419Z,78.26
2022-11-23T14:52:54.236Z,77.32
2022-11-23T14:55:23.055Z,77.57
2022-11-23T14:57:49.990Z,78.72
2022-11-23T15:00:31.718Z,78.35
2022-11-23T15:03:15.381Z,78.06
2022-11-23T15:05:52.000Z,76.04
2022-11-23T15:08:24.387Z,78.30
2022-11-23T15:11:03.423Z,79.19
2022-11-23T15:13:33.214Z,79.52
2022-11-23T15:16:03.935Z,78.88
2022-11-23T15:18:39.596Z,79.03
2022-11-23T15:21:12.222Z,78.95
2022-11-23T15:23:42.630Z,77.63
2022-11-23T15:26:46.138Z,77.15
2022-11-23T15:29:36.942Z,78.29
2022-11-23T15:32:35.172Z,76.49
2022-11-23T15:35:06.908Z,78.94
2022-11-23T15:37:43.634Z,78.22
2022-11-23T15:40:15.160Z,77.08
2022-11-23T15:42:42.204Z,78.92
2022-11-23T15:45:43.612Z,80.33
2022-11-23T15:48:26.878Z,79.61
2022-11-23T15:50:58.610Z,79.06
2022-11-23T15:53:31.258Z,79.21
2022-11-23T15:56:05.115Z,78.63
2022-11-23T15:58:32.718Z,79.00
2022-11-23T16:01:07.703Z,78.55
2022-11-23T16:03:40.668Z,77.64
2022-11-23T16:06:13.149Z,79.05
2022-11-23T16:08:40.986Z,78.01
2022-11-23T16:11:22.428Z,77.70
2022-11-23T16:13:49.080Z,77.59
2022-11-23T16:16:18.862Z,77.38
2022-11-23T16:18:52.314Z,77.28
2022-11-23T16:21:20.091Z,76.88
2022-11-23T16:23:56.513Z,78.49
2022-11-23T16:26:31.291Z,76.08
2022-11-23T16:28:59.183Z,77.82
2022-11-23T16:31:31.296Z,76.37
2022-11-23T16:33:57.769Z,76.93
2022-11-23T16:36:27.201Z,77.73
2022-11-23T16:38:53.993Z,75.80
2022-11-23T16:41:20.420Z,76.53
2022-11-23T16:43:52.404Z,77.37
2022-11-23T16:46:18.924Z,76.40
2022-11-23T16:48:45.590Z,77.33
2022-11-23T16:51:14.474Z,77.07
2022-11-23T16:54:12.111Z,76.82
2022-11-23T16:56:29.058Z,77.64
2022-11-23T16:58:55.906Z,76.29
2022-11-23T17:01:27.422Z,76.45
2022-11-23T17:03:54.063Z,76.53
2022-11-23T17:06:25.055Z,78.49
2022-11-23T17:08:59.259Z,78.20
2022-11-23T17:11:28.472Z,76.96
2022-11-23T17:13:55.934Z,79.19
2022-11-23T17:16:24.110Z,78.04
2022-11-23T17:18:50.684Z,77.56
2022-11-23T17:21:17.434Z,77.73
2022-11-23T17:23:44.366Z,79.37
2022-11-23T17:26:27.432Z,79.05
2022-11-23T17:28:54.453Z,79.87
2022-11-23T17:31:22.258Z,80.20
2022-11-23T17:33:49.327Z,77.89
2022-11-23T17:36:15.812Z,77.76
2022-11-23T17:38:44.662Z,78.51
2022-11-23T17:41:11.132Z,79.69
2022-11-23T17:43:37.608Z,80.33
2022-11-23T17:46:04.371Z,80.46
2022-11-23T17:48:30.985Z,78.38
2022-11-23T17:50:57.435Z,79.26
2022-11-23T17:53:25.520Z,77.39
2022-11-23T17:55:52.147Z,79.44
2022-11-23T17:58:18.965Z,78.64
2022-11-23T18:00:45.499Z,78.88
2022-11-23T18:03:12.027Z,80.20
2022-11-23T18:05:38.582Z,78.86
2022-11-23T18:08:05.284Z,80.18
2022-11-23T18:10:31.735Z,80.60
2022-11-23T18:12:58.321Z,80.05
2022-11-23T18:15:24.813Z,78.37
2022-11-23T18:17:51.294Z,77.47
2022-11-23T18:20:18.032Z,79.36
2022-11-23T18:22:44.611Z,79.36
2022-11-23T18:25:11.117Z,79.11
2022-11-23T18:27:37.663Z,80.73
2022-11-23T18:30:04.741Z,80.93
2022-11-23T18:32:31.324Z,80.92
2022-11-23T18:34:57.904Z,79.81
2022-11-23T18:37:24.343Z,80.06
2022-11-23T18:39:50.856Z,77.84
2022-11-23T18:42:17.764Z,77.93
2022-11-23T18:44:44.228Z,78.89
2022-11-23T18:47:10.664Z,78.14
2022-11-23T18:49:37.139Z,78.53
2022-11-23T18:52:03.669Z,77.49
2022-11-23T18:54:30.114Z,77.67
2022-11-23T18:56:56.617Z,79.32
2022-11-23T19:02:10.730Z,77.21
2022-11-23T19:04:38.747Z,77.06
2022-11-23T19:07:05.524Z,78.26
2022-11-23T19:09:32.450Z,78.40
2022-11-23T19:11:59.220Z,77.53
2022-11-23T19:14:25.689Z,76.49
2022-11-23T19:16:52.134Z,79.14
2022-11-23T19:19:18.854Z,77.25
2022-11-23T19:21:45.366Z,77.21
2022-11-23T19:24:11.920Z,77.56
2022-11-23T19:26:38.583Z,76.63
2022-11-23T19:29:05.236Z,77.66
2022-11-23T19:31:32.992Z,77.52
2022-11-23T19:34:01.491Z,78.62
2022-11-23T19:36:30.369Z,78.13
2022-11-23T19:38:57.507Z,78.05
2022-11-23T19:41:29.583Z,79.61
2022-11-23T19:43:57.737Z,78.79
2022-11-23T19:46:24.628Z,78.35
2022-11-23T19:48:51.127Z,80.01
2022-11-23T19:51:19.387Z,79.17
2022-11-23T19:53:49.352Z,79.03
2022-11-23T19:56:21.171Z,78.74
2022-11-23T19:58:51.727Z,78.28
2022-11-23T20:01:19.628Z,79.23
2022-11-23T20:03:48.084Z,78.86
2022-11-23T20:06:17.184Z,78.44
2022-11-23T20:08:45.158Z,80.04
2022-11-23T20:11:17.113Z,79.40
2022-11-23T20:13:44.096Z,81.20
2022-11-23T20:16:12.939Z,79.80
2022-11-23T20:18:40.154Z,79.02
2022-11-23T20:21:14.578Z,80.14
2022-11-23T20:23:42.024Z,79.25
2022-11-23T20:26:10.987Z,80.18
2022-11-23T20:28:37.466Z,78.33
2022-11-23T20:31:05.233Z,79.37
2022-11-23T20:33:32.102Z,78.38
2022-11-23T20:36:14.623Z,79.68
2022-11-23T20:38:41.777Z,79.76
2022-11-23T20:41:15.393Z,78.79
2022-11-23T20:43:42.664Z,80.99
2022-11-23T20:46:09.357Z,79.44
2022-11-23T20:48:36.010Z,78.90
2022-11-23T20:51:09.057Z,79.90
2022-11-23T20:53:36.806Z,80.28
2022-11-23T20:56:11.350Z,78.74
2022-11-23T20:58:38.136Z,80.23
2022-11-23T21:01:09.389Z,79.91
2022-11-23T21:03:37.049Z,79.13
2022-11-23T21:06:04.983Z,78.47
2022-11-23T21:08:34.841Z,81.49
2022-11-23T21:11:29.402Z,80.58
2022-11-23T21:14:11.208Z,80.33
2022-11-23T21:16:52.918Z,79.65
2022-11-23T21:19:21.098Z,79.55
2022-11-23T21:21:47.642Z,80.42
2022-11-23T21:24:14.156Z,81.89
2022-11-23T21:26:40.708Z,80.81
2022-11-23T21:29:11.402Z,80.16
2022-11-23T21:31:39.970Z,80.37
2022-11-23T21:34:10.485Z,80.09
2022-11-23T21:36:39.197Z,80.26
2022-11-23T21:39:08.136Z,79.12
2022-11-23T21:41:34.717Z,80.61
2022-11-23T21:44:01.367Z,79.80
2022-11-23T21:46:28.085Z,79.31
2022-11-23T21:48:56.575Z,78.62
2022-11-23T21:51:26.733Z,80.32
2022-11-23T21:53:54.064Z,79.87
2022-11-23T21:56:20.911Z,79.70
2022-11-23T21:58:47.638Z,80.96
2022-11-23T22:01:19.163Z,80.41
2022-11-23T22:03:47.840Z,81.07
2022-11-23T22:06:20.161Z,80.86
2022-11-23T22:08:49.687Z,78.68
2022-11-23T22:11:30.519Z,78.88
2022-11-23T22:13:58.947Z,81.17
2022-11-23T22:16:27.615Z,79.00
2022-11-23T22:18:57.184Z,78.78
2022-11-23T22:21:26.523Z,79.58
2022-11-23T22:23:53.158Z,79.02
2022-11-23T22:26:20.660Z,77.58
2022-11-23T22:28:50.544Z,77.41
2022-11-23T22:31:19.683Z,77.66
2022-11-23T22:33:47.149Z,78.46
2022-11-23T22:36:16.901Z,78.19
2022-11-23T22:38:43.837Z,79.79
2022-11-23T22:41:16.169Z,78.10
2022-11-23T22:43:44.321Z,79.01
2022-11-23T22:46:14.409Z,78.52
2022-11-23T22:48:43.172Z,78.74
2022-11-23T22:51:11.852Z,78.06
2022-11-23T22:53:44.455Z,77.47
2022-11-23T22:56:20.838Z,77.80
2022-11-23T22:58:47.903Z,78.66
2022-11-23T23:01:23.460Z,78.26
2022-11-23T23:03:55.578Z,77.67
2022-11-23T23:06:27.043Z,77.76
2022-11-23T23:08:56.050Z,78.32
2022-11-23T23:11:23.983Z,78.66
2022-11-23T23:13:50.879Z,79.03
2022-11-23T23:16:17.669Z,78.89
2022-11-23T23:18:44.389Z,77.95
2022-11-23T23:21:15.558Z,78.90
2022-11-23T23:23:44.434Z,77.65
2022-11-23T23:26:12.495Z,79.30
2022-11-23T23:28:39.543Z,78.70
2022-11-23T23:31:10.389Z,79.43
2022-11-23T23:33:37.567Z,78.96
2022-11-23T23:36:08.133Z,77.98
2022-11-23T23:38:34.678Z,78.21
2022-11-23T23:41:01.504Z,78.06
2022-11-23T23:43:28.852Z,78.58
2022-11-23T23:46:00.017Z,77.59
2022-11-23T23:48:31.791Z,78.04
2022-11-23T23:50:58.262Z,78.51
2022-11-23T23:53:24.723Z,78.20
2022-11-23T23:56:01.518Z,77.29
2022-11-23T23:58:29.533Z,78.25
